createdAt,value
2018-03-16T00:03:41.419Z,100676.78
2018-03-16T00:08:42.362Z,100675.34
2018-03-16T00:13:43.304Z,100667.87
2018-03-16T00:18:44.425Z,100672.62
2018-03-16T00:23:45.327Z,100652.05
2018-03-16T00:28:46.628Z,100659.84
2018-03-16T00:33:47.541Z,100677.47
2018-03-16T00:38:48.507Z,100659.73
2018-03-16T00:43:49.457Z,100667.27
2018-03-16T00:48:50.393Z,100653.09
2018-03-16T00:53:51.588Z,100655.67
2018-03-16T00:58:52.519Z,100659.87
2018-03-16T01:03:53.455Z,100647.52
2018-03-16T01:08:54.412Z,100666.25
2018-03-16T01:13:55.354Z,100645.45
2018-03-16T01:18:56.284Z,100653.09
2018-03-16T01:23:57.221Z,100637.55
2018-03-16T01:28:58.143Z,100643.00
2018-03-16T01:33:59.063Z,100645.52
2018-03-16T01:39:00.077Z,100642.02
2018-03-16T01:44:01.013Z,100633.44
2018-03-16T01:49:01.936Z,100631.00
2018-03-16T01:54:02.880Z,100658.19
2018-03-16T01:59:03.800Z,100632.58
2018-03-16T02:04:04.719Z,100636.45
2018-03-16T02:09:05.657Z,100654.03
2018-03-16T02:14:06.597Z,100659.36
2018-03-16T02:19:07.551Z,100656.61
2018-03-16T02:24:08.680Z,100647.44
2018-03-16T02:29:09.602Z,100662.29
2018-03-16T02:34:10.842Z,100672.81
2018-03-16T02:39:11.815Z,100659.36
2018-03-16T02:44:12.750Z,100654.71
2018-03-16T02:49:13.729Z,100643.62
2018-03-16T02:54:14.681Z,100670.06
2018-03-16T02:59:15.642Z,100669.09
2018-03-16T03:04:16.580Z,100680.52
2018-03-16T03:09:17.534Z,100654.75
2018-03-16T03:14:18.464Z,100676.48
2018-03-16T03:19:19.385Z,100679.06
2018-03-16T03:24:20.309Z,100707.39
2018-03-16T03:29:21.230Z,100681.11
2018-03-16T03:34:22.175Z,100706.66
2018-03-16T03:39:23.116Z,100716.55
2018-03-16T03:44:24.048Z,100716.14
2018-03-16T03:49:25.002Z,100687.47
2018-03-16T03:54:25.933Z,100693.95
2018-03-16T03:59:26.871Z,100709.95
2018-03-16T04:04:27.822Z,100714.02
2018-03-16T04:09:28.732Z,100698.56
2018-03-16T04:14:29.674Z,100688.54
2018-03-16T04:19:30.605Z,100714.30
2018-03-16T04:24:31.522Z,100723.36
2018-03-16T04:29:32.734Z,100698.95
2018-03-16T04:34:33.655Z,100696.97
2018-03-16T04:39:34.608Z,100707.47
2018-03-16T04:44:35.526Z,100691.50
2018-03-16T04:49:36.481Z,100698.07
2018-03-16T04:54:37.410Z,100717.32
2018-03-16T04:59:38.339Z,100710.47
2018-03-16T05:04:39.278Z,100699.14
2018-03-16T05:09:40.188Z,100714.95
2018-03-16T05:14:41.114Z,100692.36
2018-03-16T05:19:42.047Z,100747.70
2018-03-16T05:24:42.987Z,100748.92
2018-03-16T05:29:43.922Z,100746.09
2018-03-16T05:34:44.842Z,100743.34
2018-03-16T05:39:45.801Z,100745.32
2018-03-16T05:44:46.721Z,100763.52
2018-03-16T05:49:47.659Z,100783.80
2018-03-16T05:54:48.584Z,100784.38
2018-03-16T05:59:49.506Z,100769.80
2018-03-16T06:04:50.441Z,100764.20
2018-03-16T06:09:51.388Z,100766.84
2018-03-16T06:14:52.331Z,100801.73
2018-03-16T06:19:53.266Z,100816.50
2018-03-16T06:24:54.204Z,100809.53
2018-03-16T06:29:55.127Z,100807.39
2018-03-16T06:34:56.050Z,100814.05
2018-03-16T06:39:57.034Z,100821.34
2018-03-16T06:44:58.106Z,100821.95
2018-03-16T06:49:58.959Z,100803.34
2018-03-16T06:54:59.889Z,100837.29
2018-03-16T07:00:01.158Z,100827.39
2018-03-16T07:05:02.403Z,100847.97
2018-03-16T07:10:03.600Z,100848.11
2018-03-16T07:20:42.177Z,100859.50
2018-03-16T07:25:43.105Z,100834.58
2018-03-16T07:30:44.048Z,100871.84
2018-03-16T07:35:44.971Z,100855.11
2018-03-16T07:40:46.194Z,100883.44
2018-03-16T07:45:53.248Z,100891.46
2018-03-16T07:50:54.205Z,100897.45
2018-03-16T07:55:55.120Z,100892.98
2018-03-16T08:00:56.074Z,100893.42
2018-03-16T08:05:56.991Z,100894.52
2018-03-16T08:10:57.915Z,100897.44
2018-03-16T08:15:58.844Z,100906.58
2018-03-16T08:20:59.806Z,100924.95
2018-03-16T08:26:00.736Z,100913.72
2018-03-16T08:31:01.705Z,100911.67
2018-03-16T08:36:02.645Z,100917.34
2018-03-16T08:41:03.616Z,100912.08
2018-03-16T08:46:04.598Z,100923.77
2018-03-16T08:51:05.512Z,100925.59
2018-03-16T08:56:06.450Z,100926.84
2018-03-16T09:01:07.398Z,100919.20
2018-03-16T09:06:08.332Z,100944.73
2018-03-16T09:11:09.282Z,100922.70
2018-03-16T09:16:10.232Z,100943.44
2018-03-16T09:21:11.156Z,100946.22
2018-03-16T09:26:12.078Z,100925.45
2018-03-16T09:31:13.001Z,100951.61
2018-03-16T09:36:13.936Z,100981.80
2018-03-16T09:41:14.943Z,100952.66
2018-03-16T09:46:15.883Z,100971.82
2018-03-16T09:51:16.830Z,100966.61
2018-03-16T09:56:17.842Z,100970.64
2018-03-16T10:01:18.754Z,100951.24
2018-03-16T10:06:19.694Z,100985.83
2018-03-16T10:11:20.676Z,100990.69
2018-03-16T10:16:21.585Z,101003.53
2018-03-16T10:21:22.524Z,101014.05
2018-03-16T10:26:24.377Z,100986.78
2018-03-16T10:31:25.314Z,101014.58
2018-03-16T10:36:26.266Z,101017.07
2018-03-16T10:41:27.542Z,101016.31
2018-03-16T10:46:28.462Z,101031.52
2018-03-16T10:51:29.840Z,101028.98
2018-03-16T10:56:30.786Z,101030.80
2018-03-16T11:01:37.797Z,101035.58
2018-03-16T11:06:38.753Z,101037.37
2018-03-16T11:11:39.706Z,101051.11
2018-03-16T11:16:40.678Z,101006.07
2018-03-16T11:21:41.593Z,101069.53
2018-03-16T11:26:42.549Z,101046.73
2018-03-16T11:31:43.492Z,101041.36
2018-03-16T11:36:44.424Z,101060.76
2018-03-16T11:41:45.414Z,101071.94
2018-03-16T11:46:46.363Z,101047.06
2018-03-16T11:51:47.308Z,101059.83
2018-03-16T11:56:48.240Z,101074.46
2018-03-16T12:01:49.562Z,101071.53
2018-03-16T12:06:50.536Z,101075.32
2018-03-16T12:11:51.473Z,101077.81
2018-03-16T12:16:52.421Z,101093.55
2018-03-16T12:21:53.436Z,101077.37
2018-03-16T12:26:54.375Z,101073.70
2018-03-16T12:31:55.317Z,101064.59
2018-03-16T12:36:56.275Z,101095.30
2018-03-16T12:41:57.261Z,101088.49
2018-03-16T12:46:58.193Z,101064.77
2018-03-16T12:51:59.142Z,101082.92
2018-03-16T12:57:00.085Z,101078.64
2018-03-16T13:02:01.012Z,101080.66
2018-03-16T13:07:01.949Z,101087.65
2018-03-16T13:12:02.915Z,101088.58
2018-03-16T13:17:03.863Z,101094.08
2018-03-16T13:22:04.822Z,101112.20
2018-03-16T13:27:05.788Z,101110.73
2018-03-16T13:32:06.744Z,101107.51
2018-03-16T13:37:07.697Z,101114.84
2018-03-16T13:42:09.230Z,101122.72
2018-03-16T13:47:10.181Z,101082.93
2018-03-16T13:52:11.146Z,101115.20
2018-03-16T13:57:12.095Z,101132.11
2018-03-16T14:02:13.066Z,101137.59
2018-03-16T14:07:13.999Z,101145.00
2018-03-16T14:12:14.975Z,101151.63
2018-03-16T14:17:15.893Z,101147.31
2018-03-16T14:22:16.864Z,101141.11
2018-03-16T14:27:17.851Z,101149.11
2018-03-16T14:32:18.854Z,101155.45
2018-03-16T14:37:19.821Z,101155.92
2018-03-16T14:42:20.792Z,101151.87
2018-03-16T14:47:21.776Z,101166.73
2018-03-16T14:52:22.748Z,101163.73
2018-03-16T14:57:23.731Z,101177.78
2018-03-16T15:02:24.661Z,101166.86
2018-03-16T15:07:25.630Z,101177.59
2018-03-16T15:12:26.576Z,101161.02
2018-03-16T15:17:27.541Z,101156.36
2018-03-16T15:22:28.492Z,101173.53
2018-03-16T15:27:29.495Z,101184.48
2018-03-16T15:32:30.470Z,101162.59
2018-03-16T15:37:31.450Z,101193.91
2018-03-16T15:42:32.441Z,101182.64
2018-03-16T15:47:33.425Z,101191.80
2018-03-16T15:52:34.447Z,101172.16
2018-03-16T15:57:35.359Z,101203.58
2018-03-16T16:02:36.312Z,101216.29
2018-03-16T16:07:37.273Z,101235.52
2018-03-16T16:12:38.264Z,101194.95
2018-03-16T16:17:39.256Z,101251.23
2018-03-16T16:22:40.243Z,101242.30
2018-03-16T16:27:41.242Z,101255.13
2018-03-16T16:32:42.217Z,101238.39
2018-03-16T16:37:43.165Z,101255.43
2018-03-16T16:42:44.185Z,101274.03
2018-03-16T16:47:45.203Z,101266.69
2018-03-16T16:52:46.168Z,101275.58
2018-03-16T16:57:47.250Z,101306.06
2018-03-16T17:02:48.266Z,101282.59
2018-03-16T17:07:49.277Z,101294.22
2018-03-16T17:12:50.241Z,101292.31
2018-03-16T17:17:51.234Z,101297.91
2018-03-16T17:22:52.205Z,101304.05
2018-03-16T17:27:53.485Z,101320.64
2018-03-16T17:32:54.482Z,101281.18
2018-03-16T17:37:55.446Z,101317.45
2018-03-16T17:42:56.438Z,101346.05
2018-03-16T17:47:57.433Z,101338.22
2018-03-16T17:52:58.421Z,101333.84
2018-03-16T17:57:59.408Z,101366.15
2018-03-16T18:03:00.366Z,101367.27
2018-03-16T18:08:01.359Z,101366.61
2018-03-16T18:13:02.288Z,101368.55
2018-03-16T18:18:03.254Z,101398.31
2018-03-16T18:23:04.239Z,101389.27
2018-03-16T18:28:05.190Z,101394.27
2018-03-16T18:33:06.164Z,101404.23
2018-03-16T18:38:07.194Z,101410.36
2018-03-16T18:43:08.227Z,101421.69
2018-03-16T18:48:09.206Z,101421.53
2018-03-16T18:53:10.546Z,101429.09
2018-03-16T18:58:11.514Z,101427.20
2018-03-16T19:03:12.495Z,101433.78
2018-03-16T19:08:13.461Z,101445.99
2018-03-16T19:13:14.431Z,101418.30
2018-03-16T19:18:15.447Z,101425.91
2018-03-16T19:23:16.401Z,101417.75
2018-03-16T19:28:17.361Z,101420.05
2018-03-16T19:33:18.359Z,101404.58
2018-03-16T19:38:19.321Z,101388.88
2018-03-16T19:43:20.332Z,101400.78
2018-03-16T19:48:21.329Z,101435.38
2018-03-16T19:53:22.351Z,101443.24
2018-03-16T19:58:23.339Z,101436.96
2018-03-16T20:03:24.291Z,101446.52
2018-03-16T20:08:25.309Z,101444.48
2018-03-16T20:13:26.259Z,101465.38
2018-03-16T20:18:27.201Z,101452.45
2018-03-16T20:23:28.199Z,101469.05
2018-03-16T20:28:29.210Z,101464.57
2018-03-16T20:33:30.210Z,101450.56
2018-03-16T20:38:31.190Z,101482.45
2018-03-16T20:43:32.222Z,101444.26
2018-03-16T20:48:33.173Z,101506.11
2018-03-16T20:53:34.197Z,101495.77
2018-03-16T20:58:35.349Z,101500.67
2018-03-16T21:03:36.365Z,101494.40
2018-03-16T21:08:37.332Z,101493.80
2018-03-16T21:13:38.309Z,101490.23
2018-03-16T21:18:39.311Z,101495.87
2018-03-16T21:23:40.281Z,101498.13
2018-03-16T21:28:41.260Z,101471.88
2018-03-16T21:33:42.253Z,101484.84
2018-03-16T21:38:43.208Z,101514.90
2018-03-16T21:43:44.227Z,101511.87
2018-03-16T21:48:45.218Z,101513.56
2018-03-16T21:53:46.238Z,101520.95
2018-03-16T21:58:47.201Z,101518.27
2018-03-16T22:03:48.190Z,101520.05
2018-03-16T22:08:49.181Z,101523.32
2018-03-16T22:13:50.135Z,101508.78
2018-03-16T22:18:51.135Z,101546.05
2018-03-16T22:23:52.094Z,101544.51
2018-03-16T22:28:53.031Z,101530.02
2018-03-16T22:33:53.997Z,101527.55
2018-03-16T22:38:54.997Z,101551.20
2018-03-16T22:43:56.041Z,101546.41
2018-03-16T22:48:57.027Z,101541.53
2018-03-16T22:53:58.281Z,101544.14
2018-03-16T22:58:59.276Z,101545.58
2018-03-16T23:04:00.221Z,101562.10
2018-03-16T23:09:01.161Z,101560.11
2018-03-16T23:14:02.164Z,101560.70
2018-03-16T23:19:03.087Z,101551.08
2018-03-16T23:24:04.022Z,101554.20
2018-03-16T23:29:04.974Z,101558.31
2018-03-16T23:34:05.920Z,101559.80
2018-03-16T23:39:06.888Z,101570.58
2018-03-16T23:44:07.877Z,101548.70
2018-03-16T23:49:08.837Z,101574.20
2018-03-16T23:54:09.821Z,101583.09
2018-03-16T23:59:10.782Z,101548.58
